Terminal Aerodrome Forecast
Issued by NWS Bismarck, ND

Home | Current Version | Previous Version | Text Only | Print | Product List | Glossary On
Versions: 1 2 3 4 5 6 7 8 9 10 11 12 13 14 15 16
000
FTUS43 KBIS 201100
TAFBIS
TAF
KBIS 201125Z 2012/2112 08004KT P6SM FEW300
     FM201400 17010KT P6SM FEW300
     FM201700 21015KT P6SM FEW250
     FM202000 25016KT P6SM SCT090
     FM202200 29018G23KT P6SM VCSH BKN080
     FM210100 29011KT P6SM SKC=

USA.gov is the U.S. government's official web portal to all federal, state and local government web resources and services.